Estación Meteorológica Peña el Pijo (Robertgarden) [ 02/03/23 04:10:33 CET ]

Fecha Hora Presion(HPa) Temp (°C) Humedad % Rocio (°C) Viento ( m/s) Direccion Lluvia 1Hora(mm) Lluvia 24H(mm) LLuvia Total(mm)
2012-Apr-20 01:01:12 1000.100 9.1 63 2.4 0.7 SSE     158.50
2012-Apr-20 02:01:17 1000.200 8.7 64 2.2         158.50
2012-Apr-20 03:02:09 1000.200 8.1 64 1.7 4.4 SE     158.50
2012-Apr-20 04:01:13 1000.100 7.6 65 1.4 0.8 S     158.50
2012-Apr-20 05:01:18 1000.400 7.3 68 1.8 2.4 E     158.50
2012-Apr-20 06:01:16 1000.800 6.9 71 2.0         158.50
2012-Apr-20 07:01:16 1001.200 6.5 74 2.2         158.50
2012-Apr-20 08:01:14 1002.200 6.4 74 2.1         158.50
2012-Apr-20 09:01:12 1003.100 7.1 70 2.0         158.50
2012-Apr-20 10:01:14 1003.500 8.9 66 2.9 0.9 SSE     158.50
2012-Apr-20 11:01:16 1004.100 13.2 53 3.8         158.50
2012-Apr-20 12:01:17 1004.900 13.6 50 3.4 2.5 S     158.50
2012-Apr-20 13:01:14 1004.900 14.9 48 4.0 2.2 SSW     158.50
2012-Apr-20 14:01:16 1005.000 13.6 52 3.9 1.3 SSW     158.50
2012-Apr-20 15:01:13 1005.300 12.8 55 3.9 0.6 NW     158.50
2012-Apr-20 16:01:12 1005.400 12.1 59 4.3 2.8 S     158.50
2012-Apr-20 17:01:17 1005.300 11.4 63 4.6 2.7 S     158.50
2012-Apr-20 18:01:14 1005.400 11.0 66 4.9 1.6 E     158.50
2012-Apr-20 19:01:13 1005.400 11.2 65 4.8         158.50
2012-Apr-20 20:01:13 1005.400 11.1 66 5.0         158.50
2012-Apr-20 21:01:16 1005.700 10.5 66 4.4 1.8 SE     158.50
2012-Apr-20 22:01:17 1006.500 10.4 67 4.5         158.50
2012-Apr-20 23:01:12 1006.800 10.5 69 5.1         158.50

Temperatura Máxima:14°    Temperatura Mínima:
Presión Máxima:1006.800 Hpa    Presión Mínima:1000.100 Hpa


Volver